Time;durP1;ratioP1;P1;durP2;ratioP2;P2;SDS_P1;SDS_P2;PMS_P1;PMS_P2;Temp;Humidity;BMP_temperature;BMP_pressure;BME280_temperature;BME280_humidity;BME280_pressure;Samples;Min_cycle;Max_cycle;Signal;HPM_P1;HPM_P2
2021/10/13 00:01:20;;;;;;;41.90;15.78;;;;;;;8.84;100.00;100471.96;1664467;84;21046;-81
2021/10/13 00:03:47;;;;;;;50.92;17.90;;;;;;;8.82;100.00;100470.59;1664203;84;21034;-81
2021/10/13 00:06:13;;;;;;;48.33;19.57;;;;;;;8.82;100.00;100476.80;1664492;84;21065;-81
2021/10/13 00:08:39;;;;;;;51.92;19.62;;;;;;;8.81;100.00;100474.34;1664390;84;21760;-81
2021/10/13 00:11:05;;;;;;;49.67;18.05;;;;;;;8.85;100.00;100476.80;1664256;84;20985;-81
2021/10/13 00:13:31;;;;;;;39.05;16.50;;;;;;;8.83;100.00;100485.13;1664623;84;21054;-80
2021/10/13 00:15:58;;;;;;;46.92;17.05;;;;;;;8.74;100.00;100478.57;1637748;86;21051;-81
2021/10/13 00:18:24;;;;;;;38.78;15.85;;;;;;;8.67;100.00;100475.78;1664179;84;20959;-81
2021/10/13 00:20:50;;;;;;;40.50;16.05;;;;;;;8.57;100.00;100474.59;1664743;84;21897;-81
2021/10/13 00:23:16;;;;;;;48.52;18.92;;;;;;;8.49;100.00;100465.62;1664278;84;20951;-81
2021/10/13 00:25:42;;;;;;;53.73;21.82;;;;;;;8.51;100.00;100471.56;1664163;84;21121;-81
2021/10/13 00:28:08;;;;;;;59.93;22.55;;;;;;;8.51;100.00;100468.88;1664006;84;21074;-81
2021/10/13 00:30:34;;;;;;;61.00;22.90;;;;;;;8.53;100.00;100463.24;1655587;85;21184;-82
2021/10/13 00:33:00;;;;;;;57.55;23.38;;;;;;;8.57;100.00;100467.87;1641265;86;21115;-81
2021/10/13 00:35:26;;;;;;;63.02;22.60;;;;;;;8.60;100.00;100471.41;1641713;86;20947;-81
2021/10/13 00:37:52;;;;;;;54.98;19.87;;;;;;;8.62;100.00;100469.83;1641352;87;20875;-81
2021/10/13 00:40:17;;;;;;;57.25;20.80;;;;;;;8.57;100.00;100473.79;1641302;86;20990;-81
2021/10/13 00:42:43;;;;;;;50.23;20.50;;;;;;;8.53;100.00;100467.27;1641421;87;20991;-81
2021/10/13 00:45:09;;;;;;;66.22;22.58;;;;;;;8.53;100.00;100455.19;1641462;86;21084;-82
2021/10/13 00:47:36;;;;;;;60.60;23.00;;;;;;;8.56;100.00;100456.87;1641364;86;21026;-81
2021/10/13 00:50:10;;;;;;;71.45;26.37;;;;;;;8.57;100.00;100449.08;1641414;86;21515;-81
2021/10/13 00:52:42;;;;;;;81.22;25.25;;;;;;;8.59;100.00;100450.19;1641209;86;21588;-82
2021/10/13 00:55:17;;;;;;;79.50;26.70;;;;;;;8.58;100.00;100446.66;1641572;87;21526;-82
2021/10/13 00:57:39;;;;;;;70.83;26.97;;;;;;;8.58;100.00;100444.52;1644642;87;21535;-81
2021/10/13 01:00:06;;;;;;;80.30;27.40;;;;;;;8.48;100.00;100426.95;1641426;86;20899;-82
2021/10/13 01:02:41;;;;;;;86.12;27.75;;;;;;;8.48;100.00;100426.95;1641354;86;21066;-81
2021/10/13 01:05:44;;;;;;;79.17;28.07;;;;;;;8.58;100.00;100435.11;1638576;86;21079;-81
2021/10/13 01:08:45;;;;;;;81.80;27.95;;;;;;;8.57;100.00;100442.36;1641356;86;21018;-81
2021/10/13 01:11:25;;;;;;;63.40;25.97;;;;;;;8.55;100.00;100443.13;1641390;86;21603;-81
2021/10/13 01:14:08;;;;;;;70.90;27.93;;;;;;;8.56;100.00;100440.75;1641308;86;21443;-81
2021/10/13 01:17:15;;;;;;;77.70;27.73;;;;;;;8.56;100.00;100444.78;1641483;86;21023;-81
2021/10/13 01:19:49;;;;;;;73.12;26.50;;;;;;;8.56;100.00;100446.13;1641277;87;21519;-80
2021/10/13 01:22:35;;;;;;;67.40;25.97;;;;;;;8.57;100.00;100450.96;1641636;86;21165;-80
2021/10/13 01:25:19;;;;;;;61.23;23.73;;;;;;;8.58;100.00;100448.54;1617644;88;21185;-80
2021/10/13 01:28:04;;;;;;;69.80;24.52;;;;;;;8.52;100.00;100450.35;1618988;88;27027;-80
2021/10/13 01:30:43;;;;;;;63.98;24.07;;;;;;;8.41;100.00;100449.94;1622224;87;21078;-81
2021/10/13 01:33:36;;;;;;;64.60;23.35;;;;;;;8.36;100.00;100444.48;1634816;86;21058;-80
2021/10/13 01:36:06;;;;;;;57.05;22.75;;;;;;;8.30;100.00;100441.45;1599444;89;21108;-80
2021/10/13 01:38:40;;;;;;;62.30;23.30;;;;;;;8.25;100.00;100444.88;1598907;89;21194;-81
2021/10/13 01:41:09;;;;;;;59.85;23.57;;;;;;;8.19;100.00;100448.02;1594752;89;21091;-80
2021/10/13 01:43:38;;;;;;;58.78;22.15;;;;;;;8.11;100.00;100452.45;1599050;89;21189;-80
2021/10/13 01:46:07;;;;;;;66.62;24.50;;;;;;;8.07;100.00;100451.88;1599421;89;21594;-81
2021/10/13 01:48:35;;;;;;;69.87;25.35;;;;;;;8.03;100.00;100454.24;1599222;89;21139;-81
2021/10/13 01:51:02;;;;;;;65.87;24.72;;;;;;;8.04;100.00;100448.34;1599374;89;21138;-81
2021/10/13 01:53:30;;;;;;;67.58;24.87;;;;;;;8.03;100.00;100446.70;1599213;89;21036;-81
2021/10/13 01:55:58;;;;;;;64.85;24.67;;;;;;;7.99;100.00;100439.67;1599090;89;21040;-80
2021/10/13 01:58:26;;;;;;;69.47;27.15;;;;;;;7.98;100.00;100431.89;1599217;89;21053;-80
2021/10/13 02:00:53;;;;;;;70.20;26.00;;;;;;;7.99;100.00;100435.65;1599408;89;21424;-80
2021/10/13 02:03:23;;;;;;;72.17;28.95;;;;;;;8.00;100.00;100433.77;1599124;89;21139;-80
2021/10/13 02:05:55;;;;;;;87.40;28.90;;;;;;;8.00;100.00;100436.45;1599135;89;21040;-81
2021/10/13 02:08:24;;;;;;;73.90;29.23;;;;;;;8.00;100.00;100430.59;1599492;89;21131;-80
2021/10/13 02:10:51;;;;;;;76.75;30.43;;;;;;;7.96;100.00;100432.12;1599257;89;22358;-80
2021/10/13 02:13:19;;;;;;;89.90;31.00;;;;;;;7.92;100.00;100430.47;1604792;87;21633;-81
2021/10/13 02:15:47;;;;;;;87.22;30.60;;;;;;;7.88;100.00;100433.37;1636458;86;21171;-80
2021/10/13 02:18:18;;;;;;;85.62;31.80;;;;;;;7.89;100.00;100439.00;1640819;85;21088;-81
2021/10/13 02:20:44;;;;;;;88.03;31.95;;;;;;;7.92;100.00;100436.36;1589341;88;21105;-80
2021/10/13 02:23:13;;;;;;;89.22;31.70;;;;;;;7.92;100.00;100433.68;1589438;88;21091;-81
2021/10/13 02:25:44;;;;;;;84.97;31.15;;;;;;;7.92;100.00;100441.73;1589365;88;21059;-80
2021/10/13 02:28:16;;;;;;;95.85;34.75;;;;;;;7.90;100.00;100438.47;1589378;88;21592;-81
2021/10/13 02:30:42;;;;;;;78.07;30.57;;;;;;;7.87;100.00;100447.02;1585574;88;21106;-81
2021/10/13 02:33:08;;;;;;;87.78;32.25;;;;;;;7.85;100.00;100441.07;1558099;91;21011;-80
2021/10/13 02:35:34;;;;;;;84.20;33.25;;;;;;;7.81;100.00;100436.73;1569842;90;20915;-80
2021/10/13 02:38:00;;;;;;;80.87;32.95;;;;;;;7.74;100.00;100433.41;1569755;91;20962;-80
2021/10/13 02:40:26;;;;;;;91.92;32.63;;;;;;;7.72;100.00;100431.50;1569543;91;21879;-80
2021/10/13 02:42:52;;;;;;;98.03;33.35;;;;;;;7.69;100.00;100427.97;1569444;91;20986;-80
2021/10/13 02:45:19;;;;;;;89.55;33.13;;;;;;;7.67;100.00;100430.88;1569532;91;21073;-80
2021/10/13 02:48:01;;;;;;;85.92;33.05;;;;;;;7.65;100.00;100428.18;1549489;91;21054;-80
2021/10/13 02:50:44;;;;;;;93.15;33.73;;;;;;;7.63;100.00;100428.95;1570014;91;21140;-79
2021/10/13 02:53:25;;;;;;;78.52;32.05;;;;;;;7.63;100.00;100424.39;1569509;91;21138;-80
2021/10/13 02:55:55;;;;;;;88.15;32.10;;;;;;;7.59;100.00;100418.41;1569814;90;21118;-80
2021/10/13 02:58:32;;;;;;;92.88;34.95;;;;;;;7.53;100.00;100418.88;1569782;91;21577;-80
2021/10/13 03:01:02;;;;;;;98.62;35.15;;;;;;;7.53;100.00;100414.02;1567211;90;21677;-80
2021/10/13 03:03:50;;;;;;;100.20;35.58;;;;;;;7.55;100.00;100411.91;1569671;90;21061;-80
2021/10/13 03:06:18;;;;;;;92.50;36.00;;;;;;;7.55;100.00;100415.41;1569680;90;22478;-80
2021/10/13 03:08:53;;;;;;;94.92;33.78;;;;;;;7.56;100.00;100418.89;1569839;91;21629;-79
2021/10/13 03:11:22;;;;;;;95.87;34.75;;;;;;;7.55;100.00;100428.00;1569501;90;21057;-80
2021/10/13 03:13:50;;;;;;;95.70;32.93;;;;;;;7.52;100.00;100426.62;1550141;91;21101;-80
2021/10/13 03:16:19;;;;;;;89.42;32.45;;;;;;;7.50;100.00;100422.05;1569086;90;21089;-80
2021/10/13 03:18:47;;;;;;;78.67;31.27;;;;;;;7.49;100.00;100426.57;1636824;87;21211;-80
2021/10/13 03:21:15;;;;;;;79.58;30.27;;;;;;;7.49;100.00;100417.72;1638273;87;21014;-80
2021/10/13 03:23:41;;;;;;;87.05;32.33;;;;;;;7.49;100.00;100424.42;1638393;86;21034;-80
2021/10/13 03:26:11;;;;;;;87.00;32.40;;;;;;;7.46;100.00;100416.87;1637693;86;21094;-80
2021/10/13 03:28:39;;;;;;;86.53;30.95;;;;;;;7.42;100.00;100408.50;1614445;87;21057;-81
2021/10/13 03:31:05;;;;;;;84.90;32.20;;;;;;;7.37;100.00;100404.39;1618336;86;21117;-80
2021/10/13 03:33:32;;;;;;;83.58;30.02;;;;;;;7.32;100.00;100406.17;1656738;86;20975;-81
2021/10/13 03:35:59;;;;;;;82.70;31.40;;;;;;;7.26;100.00;100411.97;1666663;84;21115;-80
2021/10/13 03:38:26;;;;;;;77.67;31.00;;;;;;;7.20;100.00;100416.43;1660307;84;21034;-80
2021/10/13 03:40:52;;;;;;;84.87;33.10;;;;;;;7.16;100.00;100412.63;1640034;86;21480;-80
2021/10/13 03:43:18;;;;;;;89.72;31.97;;;;;;;7.13;100.00;100401.05;1639605;86;21108;-80
2021/10/13 03:45:44;;;;;;;80.35;30.62;;;;;;;7.02;100.00;100388.52;1664278;84;20919;-80
2021/10/13 03:48:11;;;;;;;80.62;30.70;;;;;;;7.06;100.00;100392.36;1666787;84;21680;-80
2021/10/13 03:50:37;;;;;;;82.05;30.65;;;;;;;7.03;100.00;100396.33;1641422;86;21574;-79
2021/10/13 03:53:03;;;;;;;79.37;31.73;;;;;;;7.01;100.00;100404.32;1667028;84;21066;-80
2021/10/13 03:55:29;;;;;;;99.28;32.93;;;;;;;7.00;100.00;100403.52;1642030;86;21115;-80
2021/10/13 03:57:55;;;;;;;85.17;31.87;;;;;;;7.01;100.00;100401.64;1666701;84;21085;-79
2021/10/13 04:00:22;;;;;;;90.90;31.50;;;;;;;7.00;100.00;100399.49;1666859;85;21014;-80
2021/10/13 04:02:48;;;;;;;77.60;31.00;;;;;;;7.01;100.00;100394.94;1665525;86;21019;-79
2021/10/13 04:05:15;;;;;;;83.00;31.20;;;;;;;6.99;100.00;100389.00;1667099;84;21034;-80
2021/10/13 04:07:41;;;;;;;81.63;32.08;;;;;;;6.98;100.00;100384.71;1666839;84;21102;-79
2021/10/13 04:10:11;;;;;;;86.63;32.15;;;;;;;6.99;100.00;100379.63;1666991;84;21101;-79
2021/10/13 04:12:37;;;;;;;85.07;32.67;;;;;;;7.04;100.00;100390.44;1666680;84;21507;-79
2021/10/13 04:15:06;;;;;;;87.27;32.83;;;;;;;7.11;100.00;100405.02;1667082;84;20966;-79
2021/10/13 04:17:33;;;;;;;85.90;31.35;;;;;;;7.17;100.00;100404.05;1667210;84;21074;-80
2021/10/13 04:20:04;;;;;;;81.32;32.50;;;;;;;7.22;100.00;100380.83;1666778;84;21130;-79
2021/10/13 04:22:30;;;;;;;86.12;31.55;;;;;;;7.25;100.00;100376.33;1623286;88;21125;-80
2021/10/13 04:24:56;;;;;;;73.70;29.82;;;;;;;7.30;100.00;100377.48;1623390;88;21015;-80
2021/10/13 04:27:22;;;;;;;82.33;30.75;;;;;;;7.36;100.00;100372.48;1623256;88;21063;-79
2021/10/13 04:29:48;;;;;;;94.37;33.15;;;;;;;7.41;100.00;100369.86;1623374;88;20900;-80
2021/10/13 04:32:14;;;;;;;86.37;33.45;;;;;;;7.47;100.00;100367.54;1620706;88;21232;-80
2021/10/13 04:34:40;;;;;;;95.10;34.75;;;;;;;7.56;100.00;100359.39;1619029;88;20944;-80
2021/10/13 04:37:06;;;;;;;87.57;32.83;;;;;;;7.63;100.00;100356.00;1618944;88;21390;-79
2021/10/13 04:39:32;;;;;;;89.30;33.30;;;;;;;7.74;100.00;100359.12;1618978;88;21725;-79
2021/10/13 04:41:58;;;;;;;87.53;34.15;;;;;;;7.87;100.00;100351.23;1618946;88;21638;-79
2021/10/13 04:44:24;;;;;;;88.30;35.63;;;;;;;8.03;100.00;100346.06;1619314;88;21090;-80
2021/10/13 04:46:50;;;;;;;84.92;34.50;;;;;;;8.20;100.00;100352.19;1619015;88;20896;-80
2021/10/13 04:49:16;;;;;;;80.70;31.87;;;;;;;8.46;100.00;100353.33;1627913;87;21050;-80
2021/10/13 04:51:42;;;;;;;82.92;32.42;;;;;;;8.81;100.00;100354.23;1636565;87;20964;-79
2021/10/13 04:54:08;;;;;;;76.22;32.73;;;;;;;9.17;100.00;100357.25;1636445;87;21746;-80
2021/10/13 04:56:34;;;;;;;67.65;29.80;;;;;;;9.50;100.00;100354.00;1636823;87;21121;-80
2021/10/13 04:59:00;;;;;;;69.67;29.87;;;;;;;9.89;100.00;100366.64;1636636;87;21807;-79
2021/10/13 05:01:26;;;;;;;71.25;28.12;;;;;;;10.49;100.00;100370.43;1636681;87;20900;-80
2021/10/13 05:03:51;;;;;;;67.05;26.85;;;;;;;10.90;100.00;100368.09;1636663;87;20991;-79
2021/10/13 05:06:17;;;;;;;66.30;26.20;;;;;;;11.21;100.00;100362.75;1636716;87;21036;-80
2021/10/13 05:08:43;;;;;;;60.17;26.05;;;;;;;11.22;100.00;100361.66;1636536;87;21929;-80
2021/10/13 05:11:09;;;;;;;53.00;24.82;;;;;;;11.17;100.00;100366.23;1636562;87;20904;-80
2021/10/13 05:13:35;;;;;;;60.33;25.72;;;;;;;11.32;100.00;100356.80;1636541;87;21027;-80
2021/10/13 05:16:01;;;;;;;59.67;25.35;;;;;;;11.66;100.00;100363.78;1636569;87;21523;-80
2021/10/13 05:18:27;;;;;;;61.20;26.05;;;;;;;12.07;100.00;100362.37;1635509;86;20960;-80
2021/10/13 05:20:53;;;;;;;63.70;25.62;;;;;;;12.43;100.00;100352.21;1656973;86;21162;-81
2021/10/13 05:23:19;;;;;;;63.05;23.83;;;;;;;12.48;100.00;100349.48;1656680;85;21126;-80
2021/10/13 05:25:45;;;;;;;60.35;25.08;;;;;;;12.44;100.00;100348.96;1657018;85;21054;-80
2021/10/13 05:28:11;;;;;;;51.60;23.20;;;;;;;12.38;100.00;100340.09;1657185;86;21490;-81
2021/10/13 05:30:37;;;;;;;54.27;25.40;;;;;;;12.43;100.00;100341.41;1657098;85;21073;-80
2021/10/13 05:33:03;;;;;;;53.45;23.98;;;;;;;12.35;100.00;100342.52;1664832;86;21618;-80
2021/10/13 05:35:29;;;;;;;57.83;23.80;;;;;;;12.36;100.00;100341.46;1672485;84;20946;-81
2021/10/13 05:37:55;;;;;;;53.63;24.50;;;;;;;12.45;100.00;100339.78;1674208;84;20982;-80
2021/10/13 05:40:21;;;;;;;59.05;25.60;;;;;;;12.41;100.00;100341.41;1674262;84;21604;-81
2021/10/13 05:42:47;;;;;;;55.35;24.43;;;;;;;12.33;100.00;100343.37;1674202;84;21053;-80
2021/10/13 05:45:13;;;;;;;52.05;23.12;;;;;;;12.46;100.00;100340.84;1674318;84;21125;-80
2021/10/13 05:47:39;;;;;;;53.90;25.20;;;;;;;12.93;100.00;100340.82;1674373;84;20962;-82
2021/10/13 05:50:06;;;;;;;48.08;23.57;;;;;;;13.33;100.00;100336.77;1674216;84;21214;-81
2021/10/13 05:52:32;;;;;;;54.03;24.02;;;;;;;13.82;100.00;100328.95;1674165;84;21038;-82
2021/10/13 05:54:58;;;;;;;61.25;23.95;;;;;;;14.13;100.00;100332.13;1674004;84;20958;-82
2021/10/13 05:57:25;;;;;;;54.23;23.60;;;;;;;14.29;100.00;100337.62;1650949;85;21298;-81
2021/10/13 06:02:19;;;;;;;47.48;22.13;;;;;;;15.12;100.00;100342.70;1629279;88;21441;-82
2021/10/13 06:04:45;;;;;;;47.48;22.58;;;;;;;14.83;100.00;100342.33;1587756;90;21091;-82
2021/10/13 06:07:10;;;;;;;53.42;22.75;;;;;;;14.35;100.00;100342.95;1563074;91;20939;-82
2021/10/13 06:09:36;;;;;;;54.15;24.67;;;;;;;13.98;100.00;100343.95;1558395;92;21183;-82
2021/10/13 06:12:07;;;;;;;56.13;24.52;;;;;;;13.76;100.00;100344.45;1576177;91;21745;-83
2021/10/13 06:14:32;;;;;;;58.85;25.12;;;;;;;13.69;100.00;100331.00;1527388;93;21070;-83
2021/10/13 06:17:00;;;;;;;54.10;26.15;;;;;;;13.70;100.00;100325.28;1521808;93;21125;-84
2021/10/13 06:19:27;;;;;;;64.85;26.42;;;;;;;14.07;100.00;100319.18;1501354;94;21710;-83
2021/10/13 06:21:55;;;;;;;62.78;24.90;;;;;;;14.64;100.00;100318.46;1531791;92;21167;-81
2021/10/13 06:24:21;;;;;;;63.17;24.85;;;;;;;15.13;100.00;100303.59;1474162;95;21243;-87
2021/10/13 06:26:47;;;;;;;48.17;24.12;;;;;;;15.59;100.00;100304.15;1469506;96;21114;-83
2021/10/13 06:29:15;;;;;;;54.35;24.50;;;;;;;15.89;100.00;100295.98;1452684;98;21126;-83
2021/10/13 06:31:46;;;;;;;56.05;25.30;;;;;;;15.88;100.00;100291.63;1464235;96;21149;-85
2021/10/13 06:34:12;;;;;;;61.58;25.20;;;;;;;16.13;100.00;100284.32;1461760;98;21610;-84
2021/10/13 06:36:38;;;;;;;53.50;23.98;;;;;;;16.51;100.00;100285.39;1462393;98;21176;-83
2021/10/13 06:39:04;;;;;;;56.53;23.22;;;;;;;16.83;100.00;100283.60;1482373;94;21167;-83
2021/10/13 06:41:33;;;;;;;54.95;24.30;;;;;;;16.89;100.00;100284.28;1513574;93;21159;-83
2021/10/13 06:43:58;;;;;;;52.45;23.15;;;;;;;16.61;100.00;100280.27;1491679;93;21112;-81
2021/10/13 06:46:27;;;;;;;49.15;22.07;;;;;;;16.65;100.00;100284.00;1500294;94;21193;-89
2021/10/13 06:48:53;;;;;;;53.17;22.65;;;;;;;16.97;100.00;100286.23;1499459;94;21655;-83
2021/10/13 06:51:19;;;;;;;50.20;22.58;;;;;;;17.48;100.00;100280.86;1500126;94;21210;-83
2021/10/13 06:53:48;;;;;;;62.35;21.33;;;;;;;18.22;100.00;100292.42;1470659;95;21061;-84
2021/10/13 06:56:15;;;;;;;47.25;22.07;;;;;;;18.66;100.00;100286.44;1505495;94;21124;-84
2021/10/13 06:58:41;;;;;;;53.00;23.40;;;;;;;19.04;100.00;100289.88;1477514;95;22052;-83
2021/10/13 07:01:07;;;;;;;56.45;22.77;;;;;;;19.21;100.00;100280.29;1505651;94;21088;-84
2021/10/13 07:03:33;;;;;;;49.63;23.30;;;;;;;18.77;100.00;100282.86;1486682;96;21224;-83
2021/10/13 07:05:59;;;;;;;52.62;21.25;;;;;;;18.73;100.00;100277.75;1486942;96;21040;-84
2021/10/13 07:08:25;;;;;;;48.42;21.65;;;;;;;19.36;100.00;100266.66;1475125;96;21108;-84
2021/10/13 07:10:51;;;;;;;49.27;21.75;;;;;;;19.42;100.00;100266.72;1473923;95;21185;-84
2021/10/13 07:13:17;;;;;;;43.17;21.45;;;;;;;19.61;100.00;100255.94;1473273;96;20961;-84
2021/10/13 07:15:43;;;;;;;59.58;22.22;;;;;;;20.34;100.00;100255.69;1468187;95;21127;-84
2021/10/13 07:18:08;;;;;;;48.65;21.05;;;;;;;20.86;100.00;100248.42;1539262;89;21020;-85
2021/10/13 07:20:35;;;;;;;42.95;20.25;;;;;;;21.24;100.00;100245.44;1574452;89;21029;-84
2021/10/13 07:23:01;;;;;;;43.05;20.12;;;;;;;21.71;88.27;100239.56;1574768;89;21788;-85
2021/10/13 07:25:28;;;;;;;47.93;19.65;;;;;;;21.74;89.52;100238.87;1575833;89;20964;-84
2021/10/13 07:27:56;;;;;;;44.77;19.37;;;;;;;22.37;81.65;100233.52;1610276;86;21117;-85
2021/10/13 07:30:24;;;;;;;43.92;18.77;;;;;;;22.77;76.89;100234.84;1621750;86;21066;-85
2021/10/13 07:32:51;;;;;;;41.73;17.87;;;;;;;22.80;72.84;100227.86;1653040;84;21059;-85
2021/10/13 07:35:19;;;;;;;38.25;18.02;;;;;;;22.46;71.69;100225.92;1626339;87;21184;-85
2021/10/13 07:37:45;;;;;;;40.00;18.42;;;;;;;22.64;76.99;100220.35;1641223;86;21022;-85
2021/10/13 07:40:12;;;;;;;56.77;19.82;;;;;;;22.84;77.61;100219.92;1641335;87;21527;-85
2021/10/13 07:42:38;;;;;;;58.38;20.43;;;;;;;23.25;70.40;100206.86;1641333;87;21086;-85
2021/10/13 07:45:07;;;;;;;53.30;19.35;;;;;;;23.48;68.71;100207.62;1641301;86;21427;-84
2021/10/13 07:47:32;;;;;;;49.80;17.70;;;;;;;23.71;65.52;100203.09;1641233;86;21312;-85
2021/10/13 07:49:58;;;;;;;41.63;17.40;;;;;;;23.27;65.50;100194.15;1641417;87;20974;-83
2021/10/13 07:52:24;;;;;;;45.95;17.67;;;;;;;22.28;67.95;100198.55;1641247;87;21198;-83
2021/10/13 07:54:50;;;;;;;49.58;18.60;;;;;;;21.25;72.48;100189.47;1617593;87;21576;-85
2021/10/13 07:57:16;;;;;;;64.50;20.92;;;;;;;20.36;81.93;100184.43;1636113;86;21140;-86
2021/10/13 07:59:42;;;;;;;47.67;19.27;;;;;;;19.71;88.69;100181.22;1609987;88;21165;-83
2021/10/13 08:02:08;;;;;;;39.63;17.27;;;;;;;19.32;96.73;100185.66;1610213;89;20982;-81
2021/10/13 08:04:34;;;;;;;37.80;15.63;;;;;;;18.93;99.25;100193.83;1609229;86;20955;-88
2021/10/13 08:07:00;;;;;;;45.10;18.00;;;;;;;18.43;100.00;100190.28;1663737;86;20934;-83
2021/10/13 08:09:26;;;;;;;44.75;18.30;;;;;;;18.06;100.00;100192.55;1665993;86;21095;-83
2021/10/13 08:11:52;;;;;;;37.65;16.12;;;;;;;17.89;100.00;100191.95;1668592;86;21154;-83
2021/10/13 08:14:17;;;;;;;44.75;17.37;;;;;;;17.90;100.00;100195.48;1668268;85;21321;-84
2021/10/13 08:16:43;;;;;;;44.20;19.07;;;;;;;17.92;100.00;100194.05;1643574;86;20879;-83
2021/10/13 08:19:09;;;;;;;34.18;16.23;;;;;;;17.87;100.00;100190.66;1668601;85;20994;-83
2021/10/13 08:21:36;;;;;;;52.10;19.07;;;;;;;17.84;100.00;100181.20;1668375;85;21010;-84
2021/10/13 08:24:02;;;;;;;50.58;16.37;;;;;;;17.71;100.00;100187.00;1668611;86;21155;-83
2021/10/13 08:26:28;;;;;;;50.03;19.20;;;;;;;17.60;100.00;100188.98;1668453;86;21002;-83
2021/10/13 08:28:54;;;;;;;64.30;20.45;;;;;;;17.42;100.00;100188.12;1668313;85;21597;-84
2021/10/13 08:31:20;;;;;;;55.15;18.65;;;;;;;17.24;100.00;100185.34;1668082;85;21061;-84
2021/10/13 08:33:47;;;;;;;40.95;17.17;;;;;;;17.21;100.00;100184.61;1672262;84;20922;-84
2021/10/13 08:36:13;;;;;;;41.13;16.62;;;;;;;17.07;100.00;100178.45;1673510;84;21070;-83
2021/10/13 08:38:39;;;;;;;40.75;18.55;;;;;;;17.01;100.00;100176.98;1673737;84;20974;-83
2021/10/13 08:41:05;;;;;;;59.40;18.40;;;;;;;16.88;100.00;100182.75;1673997;84;20938;-83
2021/10/13 08:43:32;;;;;;;56.85;19.35;;;;;;;16.88;100.00;100189.55;1673079;84;21098;-84
2021/10/13 08:45:59;;;;;;;53.50;20.43;;;;;;;16.94;100.00;100191.05;1673830;84;21182;-83
2021/10/13 08:48:25;;;;;;;43.17;18.12;;;;;;;17.17;100.00;100187.70;1673780;84;21923;-82
2021/10/13 08:50:54;;;;;;;52.75;18.95;;;;;;;17.40;100.00;100197.97;1673807;84;20986;-82
2021/10/13 08:53:24;;;;;;;50.73;20.35;;;;;;;17.66;100.00;100208.95;1648382;84;21510;-82
2021/10/13 08:55:52;;;;;;;53.80;20.82;;;;;;;17.94;100.00;100208.70;1673557;84;21045;-82
2021/10/13 08:58:22;;;;;;;44.77;18.23;;;;;;;18.13;100.00;100201.60;1674096;84;21084;-83
2021/10/13 09:01:07;;;;;;;51.25;19.40;;;;;;;18.22;100.00;100197.52;1673955;84;21178;-83
2021/10/13 09:03:44;;;;;;;47.50;19.05;;;;;;;18.21;100.00;100204.11;1610651;87;21071;-82
2021/10/13 09:06:33;;;;;;;49.10;18.77;;;;;;;18.43;100.00;100200.39;1567407;90;21552;-83
2021/10/13 09:09:08;;;;;;;41.92;16.07;;;;;;;18.71;100.00;100200.29;1561045;90;21071;-83
2021/10/13 09:11:44;;;;;;;40.12;17.12;;;;;;;18.87;100.00;100191.61;1563226;90;21039;-83
2021/10/13 09:14:27;;;;;;;47.10;15.38;;;;;;;18.91;100.00;100192.55;1563111;90;21582;-82
2021/10/13 09:17:08;;;;;;;33.98;15.80;;;;;;;19.15;100.00;100194.72;1563045;90;21153;-83
2021/10/13 09:19:51;;;;;;;34.95;15.60;;;;;;;19.50;100.00;100198.92;1562972;90;21064;-83
2021/10/13 09:22:18;;;;;;;;;;;;;;;19.71;100.00;100170.29;1565365;90;21064;-82
2021/10/13 09:24:48;;;;;;;30.45;13.90;;;;;;;19.72;100.00;100170.51;1563086;90;20176;-83
2021/10/13 09:27:24;;;;;;;31.30;13.40;;;;;;;19.67;100.00;100164.44;1562903;90;21115;-83
2021/10/13 09:29:59;;;;;;;31.10;13.20;;;;;;;19.61;100.00;100166.52;1563240;90;21025;-83
2021/10/13 09:32:29;;;;;;;27.48;12.63;;;;;;;19.69;100.00;100156.71;1563915;89;21162;-84
2021/10/13 09:34:57;;;;;;;25.50;12.30;;;;;;;19.65;100.00;100153.84;1537691;92;21549;-84
2021/10/13 09:37:28;;;;;;;25.68;12.58;;;;;;;19.73;100.00;100161.73;1538164;91;21086;-84
2021/10/13 09:39:58;;;;;;;29.15;12.88;;;;;;;19.89;100.00;100165.50;1541569;90;21616;-83
2021/10/13 09:42:25;;;;;;;28.23;12.78;;;;;;;20.22;100.00;100163.39;1565120;88;21180;-84
2021/10/13 09:44:58;;;;;;;27.75;11.95;;;;;;;20.16;100.00;100167.46;1617050;87;21121;-82
2021/10/13 09:47:33;;;;;;;24.92;11.78;;;;;;;20.11;100.00;100159.45;1617047;87;21037;-83
2021/10/13 09:50:00;;;;;;;31.55;12.68;;;;;;;20.35;100.00;100159.58;1616881;87;21073;-82
2021/10/13 09:52:30;;;;;;;25.08;11.68;;;;;;;20.50;100.00;100163.63;1617097;87;21273;-83
2021/10/13 09:55:10;;;;;;;26.37;12.68;;;;;;;20.38;100.00;100154.80;1616905;87;21018;-84
2021/10/13 09:57:48;;;;;;;31.35;13.53;;;;;;;20.28;100.00;100166.14;1617427;87;21068;-83
2021/10/13 10:00:26;;;;;;;33.30;13.13;;;;;;;20.19;98.53;100170.33;1617058;88;21034;-83
2021/10/13 10:03:00;;;;;;;38.48;16.10;;;;;;;19.90;99.48;100164.35;1614927;87;21759;-83
2021/10/13 10:05:32;;;;;;;38.00;16.52;;;;;;;19.52;100.00;100171.24;1616228;87;21523;-83
2021/10/13 10:08:10;;;;;;;33.23;14.95;;;;;;;19.39;100.00;100160.80;1617085;87;21049;-83
2021/10/13 10:11:04;;;;;;;32.78;14.33;;;;;;;19.16;100.00;100148.53;1617164;87;21554;-83
2021/10/13 10:13:41;;;;;;;36.30;14.90;;;;;;;19.16;100.00;100143.86;1560614;90;21029;-83
2021/10/13 10:16:10;;;;;;;40.75;16.82;;;;;;;19.27;100.00;100153.88;1558425;90;21080;-82
2021/10/13 10:18:39;;;;;;;43.33;17.75;;;;;;;19.27;100.00;100160.70;1528857;92;21120;-82
2021/10/13 10:21:19;;;;;;;42.17;18.73;;;;;;;19.12;100.00;100139.38;1529670;92;21061;-82
2021/10/13 10:23:53;;;;;;;32.67;15.83;;;;;;;19.13;100.00;100154.66;1539792;92;21156;-82
2021/10/13 10:26:30;;;;;;;43.28;18.57;;;;;;;18.98;100.00;100156.80;1539965;92;21112;-82
2021/10/13 10:29:01;;;;;;;36.13;14.58;;;;;;;18.98;100.00;100149.17;1539683;92;21626;-82
2021/10/13 10:31:31;;;;;;;41.73;17.50;;;;;;;19.05;100.00;100153.55;1473107;95;21343;-82
2021/10/13 10:34:11;;;;;;;37.17;15.95;;;;;;;19.08;100.00;100149.36;1477212;95;21249;-83
2021/10/13 10:36:42;;;;;;;36.00;16.25;;;;;;;18.99;100.00;100143.36;1488850;95;21606;-83
2021/10/13 10:39:13;;;;;;;32.80;16.67;;;;;;;18.99;100.00;100133.80;1486427;95;21179;-83
2021/10/13 10:41:49;;;;;;;35.92;16.32;;;;;;;19.04;100.00;100119.19;1483703;95;21171;-83
2021/10/13 10:44:41;;;;;;;33.98;15.53;;;;;;;19.06;100.00;100113.63;1483634;95;21164;-83
2021/10/13 10:47:14;;;;;;;39.83;18.20;;;;;;;19.19;100.00;100118.63;1480607;95;21145;-82
2021/10/13 10:49:57;;;;;;;39.10;19.32;;;;;;;19.24;100.00;100125.84;1504094;93;21131;-86
2021/10/13 10:52:26;;;;;;;52.90;22.22;;;;;;;19.26;100.00;100124.36;1545986;91;21128;-85
2021/10/13 10:55:08;;;;;;;46.88;21.35;;;;;;;19.27;100.00;100112.89;1553083;90;21109;-84
2021/10/13 10:57:49;;;;;;;39.38;20.62;;;;;;;19.24;100.00;100105.35;1527979;92;21746;-83
2021/10/13 11:00:26;;;;;;;43.95;19.65;;;;;;;19.26;100.00;100099.77;1546366;91;21165;-84
2021/10/13 11:03:21;;;;;;;41.10;19.60;;;;;;;19.26;100.00;100098.41;1533526;90;21157;-84
2021/10/13 11:05:48;;;;;;;51.05;21.75;;;;;;;19.19;100.00;100098.70;1561837;91;21019;-85
2021/10/13 11:08:15;;;;;;;50.85;21.45;;;;;;;19.14;100.00;100096.16;1561910;91;21606;-85
2021/10/13 11:10:42;;;;;;;47.45;22.90;;;;;;;19.01;100.00;100084.34;1561817;91;21249;-86
2021/10/13 11:13:09;;;;;;;51.48;24.60;;;;;;;19.09;100.00;100072.58;1561120;91;21090;-85
2021/10/13 11:15:38;;;;;;;50.73;23.60;;;;;;;19.10;100.00;100065.97;1561613;91;22281;-86
2021/10/13 11:18:12;;;;;;;51.30;23.30;;;;;;;19.02;100.00;100071.70;1561044;91;21197;-86
2021/10/13 11:20:39;;;;;;;48.33;21.80;;;;;;;19.07;100.00;100072.09;1561491;91;21094;-86